Terminal Aerodrome Forecast
Issued by NWS

Home | Current Version | Previous Version | Text Only | Print | Product List | Glossary On
Versions: 1 2 3 4 5 6 7 8 9 10 11 12 13 14 15 16 17 18 19 20 21 22 23 24 25 26 27 28 29 30 31 32 33 34
000
FTUS46 KOTX 012125 AAA
TAFCOE
TAF AMD
KCOE 012125Z 0121/0218 18010KT P6SM FEW080 BKN200
     FM020200 20007KT P6SM SCT080 BKN120
     FM021100 20011KT P6SM BKN060 OVC100
      AMD LTD TO CLD AND VIS=

USA.gov is the U.S. government's official web portal to all federal, state and local government web resources and services.